createdAt,value
2018-11-22T12:17:13.745Z,78.38
2018-11-22T12:19:42.343Z,78.08
2018-11-22T12:22:10.895Z,78.95
2018-11-22T12:24:40.221Z,78.95
2018-11-22T12:27:08.854Z,78.28
2018-11-22T12:29:37.453Z,78.36
2018-11-22T12:32:11.850Z,77.53
2018-11-22T12:34:45.663Z,77.15
2018-11-22T12:37:19.531Z,77.92
2018-11-22T12:39:48.194Z,78.27
2018-11-22T12:42:16.761Z,77.57
2018-11-22T12:44:45.402Z,77.37
2018-11-22T12:47:14.093Z,77.00
2018-11-22T12:49:45.047Z,77.60
2018-11-22T12:52:13.750Z,78.78
2018-11-22T12:54:42.337Z,77.40
2018-11-22T12:57:11.549Z,77.94
2018-11-22T12:59:41.241Z,78.24
2018-11-22T13:02:09.812Z,77.42
2018-11-22T13:04:38.408Z,78.05
2018-11-22T13:07:07.644Z,78.04
2018-11-22T13:09:36.354Z,78.28
2018-11-22T13:12:05.422Z,77.33
2018-11-22T13:14:34.185Z,77.67
2018-11-22T13:17:02.889Z,77.64
2018-11-22T13:19:31.437Z,77.90
2018-11-22T13:22:00.119Z,77.68
2018-11-22T13:24:28.795Z,77.75
2018-11-22T13:26:57.297Z,77.69
2018-11-22T13:29:25.887Z,77.41
2018-11-22T13:31:54.563Z,78.47
2018-11-22T13:34:23.144Z,77.95
2018-11-22T13:36:51.726Z,78.05
2018-11-22T13:39:20.254Z,78.13
2018-11-22T13:41:48.951Z,78.02
2018-11-22T13:44:18.338Z,77.99
2018-11-22T13:46:46.992Z,77.47
2018-11-22T13:49:15.543Z,77.75
2018-11-22T13:51:44.168Z,77.59
2018-11-22T13:54:12.864Z,78.46
2018-11-22T13:56:41.598Z,77.72
2018-11-22T13:59:18.523Z,77.71
2018-11-22T14:01:47.110Z,77.99
2018-11-22T14:04:15.774Z,77.70
2018-11-22T14:06:44.267Z,78.01
2018-11-22T14:09:12.925Z,78.12
2018-11-22T14:11:41.555Z,78.04
2018-11-22T14:14:10.124Z,78.05
2018-11-22T14:16:38.773Z,78.55
2018-11-22T14:19:07.629Z,78.06
2018-11-22T14:21:36.161Z,78.64
2018-11-22T14:24:04.846Z,78.80
2018-11-22T14:26:33.700Z,79.59
2018-11-22T14:29:02.443Z,79.66
2018-11-22T14:31:31.077Z,79.85
2018-11-22T14:33:59.762Z,78.93
2018-11-22T14:36:28.354Z,79.23
2018-11-22T14:38:56.921Z,79.90
2018-11-22T14:41:25.763Z,79.12
2018-11-22T14:43:54.442Z,78.76
2018-11-22T14:46:23.354Z,79.69
2018-11-22T14:48:52.093Z,79.58
2018-11-22T14:51:35.945Z,80.09
2018-11-22T14:54:04.704Z,80.80
2018-11-22T14:56:33.550Z,79.94
2018-11-22T14:59:02.230Z,79.87
2018-11-22T15:01:30.845Z,80.50
2018-11-22T15:03:59.421Z,80.60
2018-11-22T15:06:28.056Z,79.97
2018-11-22T15:08:56.631Z,79.91
2018-11-22T15:11:25.887Z,79.83
2018-11-22T15:13:54.574Z,80.44
2018-11-22T15:16:23.282Z,80.23
2018-11-22T15:18:51.956Z,80.14
2018-11-22T15:21:20.613Z,79.71
2018-11-22T15:23:49.457Z,80.28
2018-11-22T15:26:18.021Z,80.42
2018-11-22T15:28:46.882Z,79.98
2018-11-22T15:31:15.506Z,80.66
2018-11-22T15:33:44.328Z,80.31
2018-11-22T15:36:12.958Z,80.58
2018-11-22T15:38:41.533Z,80.94
2018-11-22T15:41:10.069Z,80.01
2018-11-22T15:43:38.633Z,80.85
2018-11-22T15:46:07.230Z,80.20
2018-11-22T15:48:36.005Z,80.54
2018-11-22T15:51:05.041Z,80.89
2018-11-22T15:53:33.697Z,81.79
2018-11-22T15:56:02.245Z,80.17
2018-11-22T15:58:30.845Z,81.10
2018-11-22T16:00:59.456Z,79.90
2018-11-22T16:03:28.113Z,81.33
2018-11-22T16:05:56.790Z,81.00
2018-11-22T16:08:25.475Z,80.75
2018-11-22T16:10:54.167Z,80.63
2018-11-22T16:13:22.786Z,80.25
2018-11-22T16:15:52.996Z,80.95
2018-11-22T16:18:21.671Z,80.19
2018-11-22T16:20:50.511Z,80.12
2018-11-22T16:23:19.203Z,79.96
2018-11-22T16:25:47.886Z,80.41
2018-11-22T16:28:16.551Z,80.11
2018-11-22T16:30:45.408Z,80.03
2018-11-22T16:33:13.945Z,80.31
2018-11-22T16:35:42.548Z,80.07
2018-11-22T16:38:11.131Z,79.71
2018-11-22T16:40:39.793Z,79.68
2018-11-22T16:43:08.498Z,79.70
2018-11-22T16:45:38.107Z,79.76
2018-11-22T16:48:09.149Z,79.85
2018-11-22T16:50:39.106Z,80.00
2018-11-22T16:53:07.789Z,79.31
2018-11-22T16:55:36.544Z,80.55
2018-11-22T16:58:05.591Z,80.18
2018-11-22T17:00:36.327Z,80.38
2018-11-22T17:03:07.525Z,79.58
2018-11-22T17:05:36.766Z,79.63
2018-11-22T17:08:06.145Z,79.92
2018-11-22T17:10:35.373Z,80.09
2018-11-22T17:13:04.693Z,80.18
2018-11-22T17:15:34.885Z,80.46
2018-11-22T17:18:04.188Z,79.50
2018-11-22T17:20:33.177Z,80.00
2018-11-22T17:23:02.409Z,78.81
2018-11-22T17:25:32.361Z,79.74
2018-11-22T17:28:02.570Z,80.34
2018-11-22T17:30:32.918Z,79.92
2018-11-22T17:33:01.556Z,79.80
2018-11-22T17:36:59.639Z,80.71
2018-11-22T17:39:31.472Z,79.65
2018-11-22T17:41:56.810Z,80.48
2018-11-22T17:44:25.431Z,80.04
2018-11-22T17:46:54.231Z,80.66
2018-11-22T17:49:22.922Z,81.15
2018-11-22T17:51:51.489Z,80.98
2018-11-22T17:54:20.265Z,80.35
2018-11-22T17:56:48.888Z,80.45
2018-11-22T17:59:17.560Z,80.06
2018-11-22T18:01:46.275Z,80.50
2018-11-22T18:04:14.949Z,80.35
2018-11-22T18:06:43.821Z,80.26
2018-11-22T18:09:12.812Z,80.51
2018-11-22T18:11:41.595Z,80.91
2018-11-22T18:14:10.327Z,80.04
2018-11-22T18:16:38.935Z,80.32
2018-11-22T18:19:07.576Z,80.67
2018-11-22T18:21:36.441Z,80.08
2018-11-22T18:24:06.058Z,80.30
2018-11-22T18:26:34.713Z,79.48
2018-11-22T18:29:03.323Z,79.86
2018-11-22T18:31:31.955Z,80.33
2018-11-22T18:34:00.685Z,80.00
2018-11-22T18:36:29.314Z,79.55
2018-11-22T18:38:57.969Z,79.79
2018-11-22T18:41:26.688Z,80.20
2018-11-22T18:43:55.343Z,79.12
2018-11-22T18:46:23.997Z,79.49
2018-11-22T18:48:52.492Z,80.25
2018-11-22T18:51:21.011Z,79.92
2018-11-22T18:53:49.697Z,79.73
2018-11-22T18:56:18.282Z,79.81
2018-11-22T18:58:46.917Z,79.14
2018-11-22T19:01:15.582Z,79.90
2018-11-22T19:03:44.368Z,80.33
2018-11-22T19:06:13.043Z,79.86
2018-11-22T19:08:41.664Z,79.25
2018-11-22T19:11:10.550Z,79.87
2018-11-22T19:13:39.263Z,79.80
2018-11-22T19:16:07.820Z,79.68
2018-11-22T19:18:36.455Z,80.06
2018-11-22T19:21:05.146Z,79.87
2018-11-22T19:23:33.776Z,80.18
2018-11-22T19:26:02.437Z,79.33
2018-11-22T19:28:31.030Z,79.93
2018-11-22T19:30:59.601Z,79.88
2018-11-22T19:33:28.339Z,79.87
2018-11-22T19:35:56.898Z,79.80
2018-11-22T19:38:25.645Z,79.92
2018-11-22T19:40:54.242Z,80.21
2018-11-22T19:43:22.998Z,80.14
2018-11-22T19:45:52.176Z,80.78
2018-11-22T19:48:20.820Z,81.09
2018-11-22T19:50:49.426Z,80.46
2018-11-22T19:53:17.975Z,79.92
2018-11-22T19:55:46.597Z,80.27
2018-11-22T19:58:16.444Z,79.71
2018-11-22T20:00:45.049Z,79.38
2018-11-22T20:03:13.663Z,80.27
2018-11-22T20:05:42.731Z,80.33
2018-11-22T20:08:14.055Z,80.40
2018-11-22T20:10:43.820Z,80.35
2018-11-22T20:13:12.435Z,80.28
2018-11-22T20:15:41.158Z,79.87
2018-11-22T20:18:10.763Z,79.77
2018-11-22T20:20:39.408Z,79.91
2018-11-22T20:23:07.961Z,79.71
2018-11-22T20:25:36.554Z,80.24
2018-11-22T20:28:05.615Z,80.05
2018-11-22T20:30:35.769Z,80.27
2018-11-22T20:33:04.396Z,80.40
2018-11-22T20:35:33.263Z,80.28
2018-11-22T20:38:01.984Z,80.88
2018-11-22T20:40:30.823Z,79.75
2018-11-22T20:43:00.061Z,79.32
2018-11-22T20:45:29.794Z,79.94
2018-11-22T20:48:00.852Z,80.03
2018-11-22T20:50:30.870Z,79.41
2018-11-22T20:52:59.348Z,80.06
2018-11-22T20:55:30.533Z,79.78
2018-11-22T20:58:00.557Z,80.30
2018-11-22T21:00:30.923Z,80.58
2018-11-22T21:02:59.556Z,81.04
2018-11-22T21:05:29.029Z,80.61
2018-11-22T21:07:57.482Z,80.70
2018-11-22T21:10:27.276Z,80.63
2018-11-22T21:12:55.965Z,81.05
2018-11-22T21:15:25.971Z,80.44
2018-11-22T21:17:56.388Z,80.62
2018-11-22T21:20:27.511Z,80.11
2018-11-22T21:22:56.022Z,80.26
2018-11-22T21:25:24.589Z,81.02
2018-11-22T21:27:53.361Z,80.49
2018-11-22T21:30:24.861Z,80.44
2018-11-22T21:32:53.724Z,80.77
2018-11-22T21:35:22.617Z,80.49
2018-11-22T21:37:52.304Z,80.99
2018-11-22T21:40:21.745Z,80.03
2018-11-22T21:42:50.534Z,80.75
2018-11-22T21:45:20.730Z,80.28
2018-11-22T21:47:49.370Z,80.84
2018-11-22T21:50:19.257Z,81.27
2018-11-22T21:52:47.861Z,81.01
2018-11-22T21:55:18.688Z,81.21
2018-11-22T21:57:47.827Z,81.07
2018-11-22T22:00:19.863Z,80.54
2018-11-22T22:02:52.660Z,80.35
2018-11-22T22:05:18.822Z,80.19
2018-11-22T22:07:47.342Z,81.10
2018-11-22T22:10:16.003Z,80.49
2018-11-22T22:12:44.548Z,80.18
2018-11-22T22:15:15.414Z,80.70
2018-11-22T22:17:44.751Z,80.36
2018-11-22T22:20:17.146Z,80.03
2018-11-22T22:22:45.684Z,79.91
2018-11-22T22:25:18.606Z,79.92
2018-11-22T22:27:47.635Z,80.50
2018-11-22T22:30:23.957Z,80.02
2018-11-22T22:32:53.867Z,79.92
2018-11-22T22:35:22.578Z,80.14
2018-11-22T22:37:51.285Z,80.11
2018-11-22T22:40:21.266Z,80.23
2018-11-22T22:42:50.818Z,80.14
2018-11-22T22:45:20.414Z,80.49
2018-11-22T22:47:49.612Z,80.73
2018-11-22T22:50:21.234Z,80.90
2018-11-22T22:52:51.214Z,79.63
2018-11-22T22:55:19.816Z,79.74
2018-11-22T22:57:48.375Z,80.14
2018-11-22T23:00:24.193Z,79.68
2018-11-22T23:02:54.084Z,79.76
2018-11-22T23:05:23.620Z,79.73
2018-11-22T23:07:52.192Z,80.41
2018-11-22T23:10:21.207Z,79.69
2018-11-22T23:12:49.743Z,79.67
2018-11-22T23:15:19.112Z,80.03
2018-11-22T23:17:47.630Z,79.64
2018-11-22T23:20:18.756Z,79.57
2018-11-22T23:22:47.753Z,80.48
2018-11-22T23:25:17.290Z,79.97
2018-11-22T23:27:45.918Z,79.79
2018-11-22T23:30:16.882Z,80.38
2018-11-22T23:32:47.856Z,80.01
2018-11-22T23:35:16.786Z,80.34
2018-11-22T23:37:45.380Z,80.21
2018-11-22T23:40:17.152Z,80.56
2018-11-22T23:42:45.814Z,80.39
2018-11-22T23:45:15.907Z,80.38
2018-11-22T23:47:45.062Z,80.92
2018-11-22T23:50:15.721Z,81.22
2018-11-22T23:52:45.644Z,80.87
2018-11-22T23:55:14.328Z,80.79
2018-11-22T23:57:43.066Z,80.96
